Euskara    
Meteorología y climatología de Navarra
Datos de la estación - Meteo Navarra

Estación de Isaba-Refugio Belagua GN

Altitud 1422 m.


Datos desde el 08/04/2021 hasta el 09/04/2021 en horario solar
Los datos son PROVISIONALES

Anterior Página 1 de 1 Siguiente Descargar: Formato para Excel 2000 o superior   Formato csv   Formato para OpenOffice Calc
Fecha Temperatura Humedad relativa Radiación global Insolación Precipitación Vel. viento 10 m Vel. viento 10 m Dir. viento 10 m
°C % W/m² s l/m² m/s km/h °
08/04/2021 0:00 0.2 68 0.0 0 0.0 0.5 1.8 291
08/04/2021 0:10 0.5 69 0.0 0 0.0 1.1 3.9 283
08/04/2021 0:20 0.6 68 0.0 0 0.0 0.9 3.2 292
08/04/2021 0:30 0.3 69 0.0 0 0.0 0.1 0.4 283
08/04/2021 0:40 -0.3 71 0.0 0 0.0 0.1 0.3 261
08/04/2021 0:50 -0.0 72 0.0 0 0.0 0.6 2.3 272
08/04/2021 1:00 0.2 71 0.0 0 0.0 1.3 4.8 277
08/04/2021 1:10 0.8 71 0.0 0 0.0 1.5 5.3 280
08/04/2021 1:20 0.8 71 0.0 0 0.0 1.4 5.1 269
08/04/2021 1:30 0.7 71 0.0 0 0.0 1.0 3.6 268
08/04/2021 1:40 0.6 72 0.0 0 0.0 1.4 4.9 267
08/04/2021 1:50 0.6 73 0.0 0 0.0 0.9 3.2 284
08/04/2021 2:00 0.4 74 0.0 0 0.0 1.6 5.7 268
08/04/2021 2:10 0.4 74 0.0 0 0.0 1.2 4.1 287
08/04/2021 2:20 0.5 74 0.0 0 0.0 0.9 3.3 296
08/04/2021 2:30 0.1 74 0.0 0 0.0 1.0 3.7 260
08/04/2021 2:40 0.1 76 0.0 0 0.0 1.6 5.7 288
08/04/2021 2:50 -0.0 75 0.0 0 0.0 0.3 1.2 276
08/04/2021 3:00 -0.1 77 0.0 0 0.0 1.1 4.0 263
08/04/2021 3:10 -0.1 77 0.0 0 0.0 0.3 1.0 268
08/04/2021 3:20 -0.2 77 0.0 0 0.0 0.0 0.0 0
08/04/2021 3:30 -0.8 79 0.0 0 0.0 0.4 1.4 251
08/04/2021 3:40 -0.6 79 0.0 0 0.0 0.1 0.2 273
08/04/2021 3:50 -0.4 78 0.0 0 0.0 0.5 1.9 285
08/04/2021 4:00 -1.1 80 0.0 0 0.0 0.0 0.0 0
08/04/2021 4:10 -1.0 80 0.0 0 0.0 0.0 0.0 0
08/04/2021 4:20 -1.1 80 0.0 0 0.0 0.2 0.7 261
08/04/2021 4:30 -1.5 82 0.0 0 0.0 0.2 0.7 240
08/04/2021 4:40 -1.8 82 0.0 0 0.0 0.0 0.0 0
08/04/2021 4:50 -1.8 82 0.0 0 0.0 0.0 0.0 0
08/04/2021 5:00 -1.8 83 0.0 0 0.0 0.1 0.3 165
08/04/2021 5:10 -1.4 81 0.0 0 0.0 0.1 0.5 290
08/04/2021 5:20 -0.4 74 0.0 0 0.0 2.2 8.0 275
08/04/2021 5:30 -0.3 73 0.0 0 0.0 1.7 6.1 280
08/04/2021 5:40 0.8 68 0.0 0 0.0 2.2 8.1 284
08/04/2021 5:50 -0.9 74 3.8 0 0.0 0.1 0.3 263
08/04/2021 6:00 -1.2 78 17.1 0 0.0 0.0 0.0 0
08/04/2021 6:10 -0.9 77 44.1 230 0.0 0.0 0.0 0
08/04/2021 6:20 -1.0 78 90.7 600 0.0 0.0 0.0 0
08/04/2021 6:30 -0.7 79 108.7 600 0.0 0.1 0.5 276
08/04/2021 6:40 0.3 74 140.7 600 0.0 0.0 0.0 290
08/04/2021 6:50 0.5 73 150.1 600 0.0 0.1 0.3 276
08/04/2021 7:00 1.4 68 183.2 600 0.0 0.4 1.3 254
08/04/2021 7:10 2.0 66 239.2 600 0.0 1.5 5.5 256
08/04/2021 7:20 2.3 63 246.9 600 0.0 1.2 4.5 268
08/04/2021 7:30 2.3 62 262.8 600 0.0 1.0 3.6 250
08/04/2021 7:40 2.4 62 273.8 600 0.0 0.7 2.4 248
08/04/2021 7:50 2.5 61 337.5 600 0.0 1.5 5.4 261
08/04/2021 8:00 2.7 60 389.9 600 0.0 1.7 6.1 260
08/04/2021 8:10 2.9 60 422.8 600 0.0 1.7 6.1 269
08/04/2021 8:20 3.2 59 479.8 600 0.0 2.6 9.2 257
08/04/2021 8:30 3.6 59 513.7 600 0.0 2.3 8.1 250
08/04/2021 8:40 3.7 58 533.1 600 0.0 2.4 8.5 253
08/04/2021 8:50 4.0 58 544.8 600 0.0 2.5 8.9 248
08/04/2021 9:00 4.3 58 561.5 600 0.0 3.0 10.7 251
08/04/2021 9:10 4.8 56 580.3 600 0.0 2.4 8.8 249
08/04/2021 9:20 5.2 54 604.2 600 0.0 2.0 7.3 231
08/04/2021 9:30 5.3 54 631.6 600 0.0 2.1 7.5 239
08/04/2021 9:40 5.9 53 663.7 600 0.0 3.1 11.0 253
08/04/2021 9:50 6.3 50 698.3 600 0.0 4.1 14.9 243
08/04/2021 10:00 6.6 49 731.0 600 0.0 4.1 14.9 243
08/04/2021 10:10 6.9 50 762.2 600 0.0 3.9 14.0 247
08/04/2021 10:20 7.0 50 789.3 600 0.0 4.5 16.2 243
08/04/2021 10:30 7.3 50 811.0 600 0.0 4.8 17.1 243
08/04/2021 10:40 7.4 51 850.0 600 0.0 5.1 18.4 249
08/04/2021 10:50 7.7 50 871.0 600 0.0 5.2 18.8 248
08/04/2021 11:00 7.9 50 891.0 600 0.0 5.3 19.2 244
08/04/2021 11:10 8.1 51 911.0 600 0.0 4.9 17.7 247
08/04/2021 11:20 8.4 51 916.0 600 0.0 4.8 17.4 247
08/04/2021 11:30 8.6 51 913.0 600 0.0 4.8 17.4 246
08/04/2021 11:40 9.0 51 921.0 600 0.0 4.4 15.9 249
08/04/2021 11:50 9.2 50 973.0 600 0.0 4.8 17.4 254
08/04/2021 12:00 9.5 50 967.0 600 0.0 5.1 18.3 247
08/04/2021 12:10 9.8 50 959.0 600 0.0 5.0 18.1 251
08/04/2021 12:20 9.8 51 968.0 600 0.0 5.4 19.3 251
08/04/2021 12:30 9.9 52 955.0 600 0.0 5.3 19.2 254
08/04/2021 12:40 10.1 50 837.0 600 0.0 5.3 19.0 245
08/04/2021 12:50 10.3 51 913.0 600 0.0 4.9 17.6 248
08/04/2021 13:00 10.3 52 727.8 600 0.0 4.7 17.0 256
08/04/2021 13:10 10.4 52 860.0 600 0.0 4.6 16.6 253
08/04/2021 13:20 10.7 51 833.0 600 0.0 4.4 15.7 254
08/04/2021 13:30 10.6 51 781.3 600 0.0 4.6 16.5 249
08/04/2021 13:40 10.7 50 725.9 600 0.0 4.2 14.9 252
08/04/2021 13:50 10.8 50 775.0 600 0.0 4.1 14.8 248
08/04/2021 14:00 11.0 49 772.2 600 0.0 4.0 14.4 252
08/04/2021 14:10 11.1 48 713.1 600 0.0 3.2 11.6 247
08/04/2021 14:20 11.0 48 598.8 600 0.0 3.5 12.7 240
08/04/2021 14:30 10.9 48 557.7 600 0.0 2.7 9.6 247
08/04/2021 14:40 11.1 48 633.5 600 0.0 3.7 13.4 248
08/04/2021 14:50 11.1 46 623.7 600 0.0 3.4 12.1 246
08/04/2021 15:00 11.2 46 487.4 600 0.0 3.0 10.9 243
08/04/2021 15:10 11.1 46 529.8 600 0.0 3.8 13.8 253
08/04/2021 15:20 11.2 48 472.0 600 0.0 3.8 13.8 250
08/04/2021 15:30 10.8 47 367.2 600 0.0 3.4 12.2 243
08/04/2021 15:40 10.8 49 361.6 600 0.0 3.3 11.7 247
08/04/2021 15:50 10.8 50 364.1 600 0.0 3.2 11.4 246
08/04/2021 16:00 10.6 51 332.4 600 0.0 3.3 11.8 245
08/04/2021 16:10 10.5 52 283.8 500 0.0 3.4 12.1 241
08/04/2021 16:20 10.1 53 232.3 488 0.0 3.0 10.8 244
08/04/2021 16:30 10.0 54 215.2 466 0.0 2.8 10.0 245
08/04/2021 16:40 10.0 55 189.0 210 0.0 2.4 8.6 249
08/04/2021 16:50 9.8 56 145.0 0 0.0 2.4 8.5 253
08/04/2021 17:00 9.8 57 311.2 492 0.0 2.4 8.6 249
08/04/2021 17:10 10.3 55 333.0 600 0.0 3.1 11.0 247
08/04/2021 17:20 10.2 55 196.9 548 0.0 2.3 8.4 258
08/04/2021 17:30 9.9 57 114.3 250 0.0 2.7 9.7 263
08/04/2021 17:40 9.7 57 98.0 290 0.0 2.3 8.1 265
08/04/2021 17:50 9.6 57 86.2 600 0.0 2.1 7.7 264
08/04/2021 18:00 9.4 59 82.3 600 0.0 2.1 7.6 268
08/04/2021 18:10 9.2 59 37.1 8 0.0 2.4 8.6 262
08/04/2021 18:20 9.0 60 24.5 0 0.0 2.1 7.6 269
08/04/2021 18:30 8.7 62 9.5 0 0.0 2.6 9.4 265
08/04/2021 18:40 8.5 63 0.0 0 0.0 3.0 10.7 261
08/04/2021 18:50 8.3 64 0.0 0 0.0 2.7 9.6 272
08/04/2021 19:00 8.1 65 0.0 0 0.0 2.5 9.1 273
08/04/2021 19:10 7.9 66 0.0 0 0.0 2.0 7.3 282
08/04/2021 19:20 7.8 67 0.0 0 0.0 1.5 5.3 289
08/04/2021 19:30 7.4 69 0.0 0 0.0 0.6 2.2 322
08/04/2021 19:40 7.3 69 0.0 0 0.0 0.6 2.1 297
08/04/2021 19:50 7.2 70 0.0 0 0.0 1.0 3.6 291
08/04/2021 20:00 7.1 71 0.0 0 0.0 1.1 4.0 295
08/04/2021 20:10 7.2 70 0.0 0 0.0 1.2 4.3 298
08/04/2021 20:20 7.3 70 0.0 0 0.0 1.8 6.4 290
08/04/2021 20:30 7.2 70 0.0 0 0.0 0.7 2.6 289
08/04/2021 20:40 6.1 72 0.0 0 0.0 0.2 0.6 0
08/04/2021 20:50 5.6 76 0.0 0 0.0 0.0 0.0 0
08/04/2021 21:00 6.3 75 0.0 0 0.0 0.0 0.1 301
08/04/2021 21:10 6.6 74 0.0 0 0.0 0.2 0.8 341
08/04/2021 21:20 6.7 74 0.0 0 0.0 0.1 0.4 3
08/04/2021 21:30 6.2 74 0.0 0 0.0 0.0 0.0 0
08/04/2021 21:40 6.4 75 0.0 0 0.0 1.0 3.4 261
08/04/2021 21:50 6.9 73 0.0 0 0.0 0.7 2.6 251
08/04/2021 22:00 6.8 74 0.0 0 0.0 1.0 3.6 276
08/04/2021 22:10 6.7 74 0.0 0 0.0 0.7 2.4 290
08/04/2021 22:20 6.8 74 0.0 0 0.0 0.8 3.0 290
08/04/2021 22:30 6.9 73 0.0 0 0.0 0.7 2.6 288
08/04/2021 22:40 6.8 73 0.0 0 0.0 0.4 1.5 311
08/04/2021 22:50 6.7 73 0.0 0 0.0 1.1 3.9 303
08/04/2021 23:00 6.6 74 0.0 0 0.0 1.4 4.9 271
08/04/2021 23:10 6.3 75 0.0 0 0.0 1.0 3.6 271
08/04/2021 23:20 6.2 76 0.0 0 0.0 1.5 5.5 255
08/04/2021 23:30 5.9 77 0.0 0 0.0 2.5 9.0 263
08/04/2021 23:40 5.9 77 0.0 0 0.0 2.0 7.1 265
08/04/2021 23:50 5.7 78 0.0 0 0.0 1.8 6.6 268
Anterior Página 1 de 1 Siguiente

NOTA: Tipo de datos según el color:
   - Valores diarios o 10 minutos correctos
   - Valores diarios calculados a partir de un número de datos 10 minutos menor que 144 y mayor que 120, o de un número de datos semihorarios menor que 48 y mayor que 40 (caso de las estaciones de INTIA Y Ministerio)
   - Valores diez minutos estimados


Contacto        Enlaces        Aviso legal